Flight Track Log - Related Links

Times and Time Zones

All times are in EDT time to prevent confusion due to time zone crossing. See the AAY136 flight status page for this flight to view local times or setup timezone preferences in your user account.

Time Position Orientation Groundspeed Altitude Reporting Facility
EDT Latitude Longitude Course Direction KTS MPH feet Rate Location/Type
Fri 05:08:58 PM 33.2820 -111.6320 137° Southeast 166 191 2,900  Level FlightAware ADS-B
Fri 05:09:28 PM 33.2620 -111.6090 136° Southeast 195 224 3,800 1,800 Climbing FlightAware ADS-B
Fri 05:09:58 PM 33.2430 -111.5830 131° Southeast 227 261 4,700 1,950 Climbing FlightAware ADS-B
Fri 05:10:08 PM 33.2410 -111.5680 99° East 233 268 5,100 3,600 Climbing FlightAware ADS-B
Fri 05:10:28 PM 33.2550 -111.5350 63° Northeast 231 266 6,500 3,400 Climbing FlightAware ADS-B
Fri 05:10:38 PM 33.2640 -111.5280 33° Northeast 234 269 6,800 1,440 Climbing FlightAware ADS-B
Fri 05:10:53 PM 33.2800 -111.5230 15° North 243 280 7,100 1,467 Climbing FlightAware ADS-B
Fri 05:11:23 PM 33.3170 -111.5150 10° North 282 325 7,900 2,182 Climbing FlightAware ADS-B
Fri 05:11:48 PM 33.3480 -111.5100 North 287 330 9,100 2,836 Climbing FlightAware ADS-B
Fri 05:12:18 PM 33.3890 -111.5200 348° North 295 339 10,500 1,971 Climbing FlightAware ADS-B
Fri 05:12:58 PM 33.4480 -111.5380 346° North 342 394 11,400 1,950 Climbing FlightAware ADS-B
Fri 05:13:38 PM 33.5110 -111.5580 345° North 355 409 13,100 2,612 Climbing FlightAware ADS-B
Fri 05:14:23 PM 33.5840 -111.5810 345° North 363 418 15,100 2,541 Climbing FlightAware ADS-B
Fri 05:15:03 PM 33.6480 -111.6010 345° North 370 426 16,700 2,329 Climbing FlightAware ADS-B
Fri 05:15:48 PM 33.7230 -111.6240 346° North 381 438 18,400 2,400 Climbing FlightAware ADS-B
Fri 05:16:28 PM 33.7920 -111.6460 345° North 381 438 20,100 2,259 Climbing FlightAware ADS-B
Fri 05:17:13 PM 33.8680 -111.6700 345° North 392 451 21,600 1,835 Climbing FlightAware ADS-B
Fri 05:17:53 PM 33.9370 -111.6900 346° North 404 465 22,700 1,906 Climbing FlightAware ADS-B
Fri 05:18:38 PM 34.0270 -111.7020 354° North 414 476 24,300 1,886 Climbing FlightAware ADS-B
Fri 05:19:03 PM 34.0740 -111.7010 North 420 483 24,900 1,662 Climbing FlightAware ADS-B
Fri 05:19:43 PM 34.1520 -111.6860 North 430 495 26,100 1,694 Climbing FlightAware ADS-B
Fri 05:20:28 PM 34.2400 -111.6540 17° North 440 506 27,300 1,482 Climbing FlightAware ADS-B
Fri 05:21:08 PM 34.3130 -111.6120 25° Northeast 457 526 28,200 1,412 Climbing FlightAware ADS-B
Fri 05:21:53 PM 34.3900 -111.5380 38° Northeast 460 529 29,300 1,271 Climbing FlightAware ADS-B
Fri 05:22:33 PM 34.4550 -111.4780 37° Northeast 467 537 30,000 1,200 Climbing FlightAware ADS-B
Fri 05:23:18 PM 34.5340 -111.4060 37° Northeast 470 541 31,000 1,553 Climbing FlightAware ADS-B
Fri 05:23:58 PM 34.6050 -111.3410 37° Northeast 463 533 32,200 1,650 Climbing FlightAware ADS-B
Fri 05:24:38 PM 34.6720 -111.2800 37° Northeast 460 529 33,200 1,412 Climbing FlightAware ADS-B
Fri 05:25:23 PM 34.7500 -111.2070 38° Northeast 459 528 34,200 1,271 Climbing FlightAware ADS-B
Fri 05:26:03 PM 34.8180 -111.1450 37° Northeast 457 526 35,000 1,129 Climbing FlightAware ADS-B
Fri 05:26:48 PM 34.8910 -111.0760 38° Northeast 455 524 35,800 1,200 Climbing FlightAware ADS-B
Fri 05:27:23 PM 34.9510 -111.0210 37° Northeast 450 518 36,600 900 Climbing FlightAware ADS-B
Fri 05:28:08 PM 35.0230 -110.9530 38° Northeast 452 520 37,000 267 Climbing FlightAware ADS-B
Fri 05:28:53 PM 35.1000 -110.8820 37° Northeast 443 510 37,000  Level FlightAware ADS-B
Fri 05:29:28 PM 35.1550 -110.8310 37° Northeast 442 509 37,000  Level FlightAware ADS-B
Fri 05:30:13 PM 35.2290 -110.7610 38° Northeast 442 509 37,000  Level FlightAware ADS-B
Fri 05:30:58 PM 35.3000 -110.6940 38° Northeast 443 510 37,000  Level FlightAware ADS-B
Fri 05:31:38 PM 35.3660 -110.6320 37° Northeast 444 511 37,000  Level FlightAware ADS-B
Fri 05:32:23 PM 35.4410 -110.5610 38° Northeast 446 513 37,000  Level FlightAware ADS-B
Fri 05:33:03 PM 35.5060 -110.4990 38° Northeast 446 513 37,000  Level FlightAware ADS-B
Fri 05:33:43 PM 35.5710 -110.4370 38° Northeast 447 514 37,000  Level FlightAware ADS-B
Fri 05:34:28 PM 35.6430 -110.3690 37° Northeast 446 513 37,000  Level FlightAware ADS-B
Fri 05:35:08 PM 35.7080 -110.3070 38° Northeast 445 512 37,000  Level FlightAware ADS-B
Fri 05:35:48 PM 35.7740 -110.2440 38° Northeast 443 510 37,000  Level FlightAware ADS-B
Fri 05:36:33 PM 35.8480 -110.1730 38° Northeast 443 510 37,000  Level FlightAware ADS-B
Fri 05:37:13 PM 35.9130 -110.1110 38° Northeast 443 510 37,000  Level FlightAware ADS-B
Fri 05:37:53 PM 35.9780 -110.0490 38° Northeast 444 511 37,000  Level FlightAware ADS-B
Fri 05:38:38 PM 36.0500 -109.9790 38° Northeast 446 513 37,000  Level FlightAware ADS-B
Fri 05:39:18 PM 36.1140 -109.9170 38° Northeast 447 514 37,000  Level FlightAware ADS-B
Fri 05:40:03 PM 36.1850 -109.8480 38° Northeast 449 517 37,000  Level FlightAware ADS-B
Fri 05:40:38 PM 36.2400 -109.7950 38° Northeast 449 517 37,000  Level FlightAware ADS-B
Fri 05:41:18 PM 36.2950 -109.7410 38° Northeast 449 517 37,000  Level FlightAware ADS-B
Fri 05:41:58 PM 36.3510 -109.6870 38° Northeast 449 517 37,000  Level FlightAware ADS-B
Fri 05:42:38 PM 36.4070 -109.6330 38° Northeast 449 517 37,000  Level FlightAware ADS-B
Fri 05:43:18 PM 36.4620 -109.5790 38° Northeast 449 517 37,000  Level FlightAware ADS-B
Fri 05:44:08 PM 36.5320 -109.5110 38° Northeast 449 517 37,000  Level FlightAware ADS-B
Fri 05:44:48 PM 36.5870 -109.4570 38° Northeast 449 517 37,000  Level FlightAware ADS-B
Fri 05:45:28 PM 36.6430 -109.4030 38° Northeast 449 517 37,000  Level FlightAware ADS-B
Fri 05:46:08 PM 36.6990 -109.3490 38° Northeast 449 517 37,000  Level FlightAware ADS-B
Fri 05:46:58 PM 36.7680 -109.2810 38° Northeast 449 517 37,000  Level FlightAware ADS-B
Fri 05:47:38 PM 36.8240 -109.2270 38° Northeast 449 517 37,000  Level FlightAware ADS-B
Fri 05:48:18 PM 36.8800 -109.1720 38° Northeast 449 517 37,000  Level FlightAware ADS-B
Fri 05:48:58 PM 36.9350 -109.1180 38° Northeast 449 517 37,000  Level FlightAware ADS-B
Fri 05:49:48 PM 37.0050 -109.0500 38° Northeast 449 517 37,000  Level FlightAware ADS-B
Fri 05:50:48 PM 37.2256 -108.8217 38° Northeast 447 514 37,000  Level Denver Center
Fri 05:51:50 PM 37.3328 -108.7125 39° Northeast 445 512 37,000  Level Denver Center
Fri 05:52:52 PM 37.4256 -108.6178 39° Northeast 448 516 37,000  Level Denver Center
Fri 05:53:54 PM 37.5325 -108.5089 39° Northeast 443 510 37,000  Level Denver Center
Fri 05:54:55 PM 37.6242 -108.4139 39° Northeast 446 513 37,000  Level Denver Center
Fri 05:55:57 PM 37.7178 -108.3214 38° Northeast 445 512 37,000  Level Denver Center
Fri 06:01:38 PM 38.2680 -107.7540 38° Northeast 445 512 37,000  Level FlightAware ADS-B
Fri 06:02:23 PM 38.3420 -107.6770 39° Northeast 445 512 37,000  Level FlightAware ADS-B
Fri 06:03:03 PM 38.4060 -107.6090 40° Northeast 446 513 37,000  Level FlightAware ADS-B
Fri 06:04:28 PM 38.5350 -107.4740 39° Northeast 447 514 37,000  Level FlightAware ADS-B
Fri 06:05:08 PM 38.6050 -107.4000 40° Northeast 448 516 37,000  Level FlightAware ADS-B
Fri 06:05:44 PM 38.6698 -107.3310 40° Northeast 448 516 37,000  Level FlightAware ADS-B
Fri 06:06:18 PM 38.7249 -107.2730 39° Northeast 448 516 37,000  Level FlightAware ADS-B
Fri 06:06:48 PM 38.7729 -107.2220 40° Northeast 447 514 37,000  Level FlightAware ADS-B
Fri 06:07:19 PM 38.8221 -107.1700 39° Northeast 448 516 37,000  Level FlightAware ADS-B
Fri 06:07:51 PM 38.8724 -107.1160 40° Northeast 449 517 37,000  Level FlightAware ADS-B
Fri 06:08:22 PM 38.9214 -107.0640 40° Northeast 449 517 37,000  Level FlightAware ADS-B
Fri 06:08:52 PM 38.9681 -107.0140 40° Northeast 449 517 37,000  Level FlightAware ADS-B
Fri 06:09:26 PM 39.0245 -106.9530 40° Northeast 450 518 37,000  Level FlightAware ADS-B
Fri 06:09:57 PM 39.0739 -106.9000 40° Northeast 450 518 37,000  Level FlightAware ADS-B
Fri 06:10:33 PM 39.1307 -106.8390 40° Northeast 451 519 37,000  Level FlightAware ADS-B
Fri 06:11:03 PM 39.1787 -106.7870 40° Northeast 449 517 37,000  Level FlightAware ADS-B
Fri 06:11:33 PM 39.2265 -106.7360 40° Northeast 449 517 37,000  Level FlightAware ADS-B
Fri 06:12:07 PM 39.2804 -106.6770 40° Northeast 449 517 37,000  Level FlightAware ADS-B
Fri 06:12:37 PM 39.3282 -106.6250 40° Northeast 449 517 37,000  Level FlightAware ADS-B
Fri 06:13:08 PM 39.3758 -106.5740 40° Northeast 450 518 37,000  Level FlightAware ADS-B
Fri 06:13:39 PM 39.4272 -106.5180 40° Northeast 450 518 37,000  Level FlightAware ADS-B
Fri 06:14:10 PM 39.4753 -106.4650 40° Northeast 451 519 37,000  Level FlightAware ADS-B
Fri 06:14:41 PM 39.5244 -106.4110 40° Northeast 450 518 37,000  Level FlightAware ADS-B
Fri 06:15:11 PM 39.5728 -106.3580 40° Northeast 449 517 37,000  Level FlightAware ADS-B
Fri 06:15:42 PM 39.6217 -106.3040 40° Northeast 449 517 37,000  Level FlightAware ADS-B
Fri 06:16:12 PM 39.6699 -106.2510 40° Northeast 448 516 37,000  Level FlightAware ADS-B
Fri 06:16:43 PM 39.7176 -106.1990 40° Northeast 446 513 37,000  Level FlightAware ADS-B
Fri 06:17:14 PM 39.7663 -106.1450 40° Northeast 447 514 37,000  Level FlightAware ADS-B
Fri 06:17:44 PM 39.8142 -106.0920 40° Northeast 448 516 37,000  Level FlightAware ADS-B
Fri 06:18:19 PM 39.8674 -106.0330 40° Northeast 448 516 37,000  Level FlightAware ADS-B
Fri 06:18:55 PM 39.9258 -105.9680 40° Northeast 448 516 37,000  Level FlightAware ADS-B
Fri 06:19:33 PM 39.9800 -105.9080 40° Northeast 447 514 37,000  Level FlightAware ADS-B
Fri 06:19:43 PM 40.0009 -105.8850 40° Northeast 448 516 37,000  Level FlightAware ADS-B
Fri 06:20:13 PM 40.0487 -105.8320 40° Northeast 446 513 37,000  Level FlightAware ADS-B
Fri 06:20:44 PM 40.0971 -105.7770 41° Northeast 445 512 37,000  Level FlightAware ADS-B
Fri 06:21:23 PM 40.1575 -105.7100 40° Northeast 443 510 37,000  Level FlightAware ADS-B
Fri 06:21:58 PM 40.2111 -105.6500 41° Northeast 442 509 37,000  Level FlightAware ADS-B
Fri 06:22:28 PM 40.2540 -105.6020 40° Northeast 442 509 37,000  Level FlightAware ADS-B
Fri 06:22:37 PM 40.2726 -105.5800 42° Northeast 442 509 37,000  Level FlightAware ADS-B
Fri 06:23:08 PM 40.3200 -105.5270 40° Northeast 441 507 37,000  Level FlightAware ADS-B
Fri 06:23:48 PM 40.3770 -105.4620 41° Northeast 440 506 37,000  Level FlightAware ADS-B
Fri 06:24:03 PM 40.4045 -105.4310 41° Northeast 440 506 37,000  Level FlightAware ADS-B
Fri 06:24:33 PM 40.4508 -105.3790 41° Northeast 441 507 37,000  Level FlightAware ADS-B
Fri 06:25:04 PM 40.4980 -105.3250 41° Northeast 441 507 37,000  Level FlightAware ADS-B
Fri 06:25:45 PM 40.5619 -105.2520 41° Northeast 440 506 37,000  Level FlightAware ADS-B
Fri 06:26:37 PM 40.6420 -105.1610 41° Northeast 440 506 37,000  Level FlightAware ADS-B
Fri 06:27:10 PM 40.6921 -105.1030 41° Northeast 444 511 37,000  Level FlightAware ADS-B
Fri 06:27:40 PM 40.7389 -105.0490 41° Northeast 445 512 37,000  Level FlightAware ADS-B
Fri 06:28:10 PM 40.7857 -104.9950 41° Northeast 445 512 37,000  Level FlightAware ADS-B
Fri 06:28:40 PM 40.8322 -104.9420 41° Northeast 444 511 37,000  Level FlightAware ADS-B
Fri 06:29:11 PM 40.8797 -104.8870 41° Northeast 444 511 37,000  Level FlightAware ADS-B
Fri 06:29:42 PM 40.9271 -104.8320 41° Northeast 444 511 37,000  Level FlightAware ADS-B
Fri 06:30:12 PM 40.9739 -104.7780 41° Northeast 444 511 37,000  Level FlightAware ADS-B
Fri 06:30:43 PM 41.0208 -104.7240 41° Northeast 444 511 37,000  Level FlightAware ADS-B
Fri 06:31:13 PM 41.0670 -104.6700 41° Northeast 444 511 37,000  Level FlightAware ADS-B
Fri 06:31:43 PM 41.1130 -104.6160 41° Northeast 444 511 37,000  Level FlightAware ADS-B
Fri 06:32:13 PM 41.1605 -104.5610 41° Northeast 441 507 37,000  Level FlightAware ADS-B
Fri 06:32:45 PM 41.2085 -104.5040 42° Northeast 442 509 37,000  Level FlightAware ADS-B
Fri 06:33:15 PM 41.2530 -104.4520 41° Northeast 441 507 37,000  Level FlightAware ADS-B
Fri 06:33:45 PM 41.3007 -104.3960 41° Northeast 441 507 37,000  Level FlightAware ADS-B
Fri 06:34:15 PM 41.3465 -104.3420 42° Northeast 441 507 37,000  Level FlightAware ADS-B
Fri 06:34:49 PM 41.3978 -104.2810 42° Northeast 441 507 37,000  Level FlightAware ADS-B
Fri 06:35:19 PM 41.4438 -104.2270 41° Northeast 441 507 37,000  Level FlightAware ADS-B
Fri 06:35:50 PM 41.4906 -104.1710 42° Northeast 441 507 37,000  Level FlightAware ADS-B
Fri 06:36:20 PM 41.5363 -104.1170 41° Northeast 441 507 37,000  Level FlightAware ADS-B
Fri 06:36:50 PM 41.5808 -104.0640 42° Northeast 439 505 37,000 98 Level FlightAware ADS-B
Fri 06:37:21 PM 41.6290 -104.0060 42° Northeast 437 503 37,100  Climbing FlightAware ADS-B
Fri 06:37:52 PM 41.6746 -103.9520 41° Northeast 436 502 37,000 -98 Descending FlightAware ADS-B
Fri 06:38:22 PM 41.7203 -103.8980 41° Northeast 433 498 37,000  Level FlightAware ADS-B
Fri 06:38:52 PM 41.7654 -103.8440 42° Northeast 433 498 37,000  Level FlightAware ADS-B
Fri 06:39:22 PM 41.8099 -103.7900 42° Northeast 433 498 37,000  Level FlightAware ADS-B
Fri 06:39:53 PM 41.8545 -103.7360 42° Northeast 433 498 37,000  Level FlightAware ADS-B
Fri 06:40:24 PM 41.9007 -103.6800 42° Northeast 433 498 37,000  Level FlightAware ADS-B
Fri 06:40:54 PM 41.9465 -103.6250 42° Northeast 431 496 37,000  Level FlightAware ADS-B
Fri 06:41:36 PM 42.0077 -103.5510 42° Northeast 432 497 37,000  Level FlightAware ADS-B
Fri 06:42:06 PM 42.0518 -103.4970 42° Northeast 431 496 37,000  Level FlightAware ADS-B
Fri 06:42:36 PM 42.0965 -103.4430 42° Northeast 430 495 37,000  Level FlightAware ADS-B
Fri 06:43:14 PM 42.1515 -103.3760 42° Northeast 430 495 37,000  Level FlightAware ADS-B
Fri 06:43:44 PM 42.1961 -103.3210 42° Northeast 430 495 37,000  Level FlightAware ADS-B
Fri 06:44:14 PM 42.2403 -103.2680 42° Northeast 430 495 37,000  Level FlightAware ADS-B
Fri 06:44:45 PM 42.2863 -103.2110 43° Northeast 430 495 37,000  Level FlightAware ADS-B
Fri 06:45:15 PM 42.3304 -103.1570 42° Northeast 430 495 37,000  Level FlightAware ADS-B
Fri 06:45:46 PM 42.3752 -103.1010 43° Northeast 431 496 37,000  Level FlightAware ADS-B
Fri 06:46:16 PM 42.4194 -103.0470 42° Northeast 432 497 37,000  Level FlightAware ADS-B
Fri 06:47:05 PM 42.4905 -102.9580 43° Northeast 431 496 37,000  Level FlightAware ADS-B
Fri 06:47:36 PM 42.5364 -102.9020 42° Northeast 425 489 37,000  Level FlightAware ADS-B
Fri 06:48:06 PM 42.5799 -102.8470 43° Northeast 422 486 37,000  Level FlightAware ADS-B
Fri 06:48:36 PM 42.6232 -102.7940 42° Northeast 423 487 37,000  Level FlightAware ADS-B
Fri 06:49:51 PM 42.7307 -102.6590 43° Northeast 422 486 37,000  Level FlightAware ADS-B
Fri 06:50:21 PM 42.7744 -102.6040 43° Northeast 422 486 37,000  Level FlightAware ADS-B
Fri 06:50:43 PM 42.7900 -102.5844 43° Northeast 421 484 37,000  Level Denver Center
Fri 06:51:45 PM 42.8847 -102.4628 43° Northeast 421 484 37,000  Level Denver Center
Fri 06:52:47 PM 42.9672 -102.3589 43° Northeast 422 486 37,000  Level Denver Center
Fri 06:53:49 PM 43.0647 -102.2353 43° Northeast 428 493 37,000  Level Denver Center
Fri 06:54:50 PM 43.1467 -102.1311 43° Northeast 422 486 37,000  Level Denver Center
Fri 06:55:52 PM 43.2428 -102.0086 43° Northeast 423 487 37,000  Level Denver Center
Fri 06:56:54 PM 43.3331 -101.8914 43° Northeast 433 498 37,000  Level Denver Center
Fri 06:57:56 PM 43.4211 -101.7769 43° Northeast 436 502 37,000 48 Level Denver Center
Fri 06:58:58 PM 43.5103 -101.6592 44° Northeast 445 512 37,100  Climbing Denver Center
Fri 07:00:00 PM 43.6028 -101.5425 42° Northeast 449 517 37,000 -48 Descending Denver Center
Fri 07:01:02 PM 43.6897 -101.4283 43° Northeast 434 499 37,000  Level Denver Center
Fri 07:01:48 PM 43.7578 -101.3375 44° Northeast 431 496 37,000  Level Minneapolis Center
Fri 07:02:50 PM 43.8450 -101.2244 43° Northeast 429 494 37,000  Level Minneapolis Center
Fri 07:03:52 PM 43.9308 -101.1089 44° Northeast 429 494 37,000  Level Minneapolis Center
Fri 07:04:54 PM 44.0356 -100.9692 44° Northeast 434 499 37,000  Level Minneapolis Center
Fri 07:05:56 PM 44.1217 -100.8556 43° Northeast 431 496 37,000  Level Minneapolis Center
Fri 07:06:58 PM 44.2067 -100.7403 44° Northeast 428 493 37,000  Level Minneapolis Center
Fri 07:08:00 PM 44.2922 -100.6267 44° Northeast 426 490 37,000  Level Minneapolis Center
Fri 07:09:03 PM 44.3769 -100.5094 45° Northeast 429 494 37,000  Level Minneapolis Center
Fri 07:10:05 PM 44.4644 -100.3922 44° Northeast 434 499 37,000  Level Minneapolis Center
Fri 07:11:07 PM 44.5675 -100.2503 44° Northeast 434 499 37,000  Level Minneapolis Center
Fri 07:12:09 PM 44.6539 -100.1319 44° Northeast 435 501 37,000  Level Minneapolis Center
Fri 07:13:11 PM 44.7389 -100.0144 44° Northeast 434 499 37,000  Level Minneapolis Center
Fri 07:14:13 PM 44.8253 -99.8950 44° Northeast 436 502 37,000  Level Minneapolis Center
Fri 07:15:15 PM 44.9117 -99.7747 45° Northeast 442 509 37,000  Level Minneapolis Center
Fri 07:16:17 PM 45.0156 -99.6306 44° Northeast 444 511 37,000  Level Minneapolis Center
Fri 07:17:19 PM 45.1025 -99.5078 45° Northeast 445 512 37,000  Level Minneapolis Center
Fri 07:18:21 PM 45.1897 -99.3850 45° Northeast 445 512 37,000  Level Minneapolis Center
Fri 07:19:35 PM 45.2781 -99.2614 45° Northeast 446 513 37,000  Level Minneapolis Center
Fri 07:20:37 PM 45.3817 -99.1114 45° Northeast 444 511 37,000  Level Minneapolis Center
Fri 07:21:39 PM 45.4867 -98.9606 45° Northeast 446 513 37,000 -435 Level Minneapolis Center
Fri 07:22:41 PM 45.5783 -98.8317 45° Northeast 456 525 36,100 -1,500 Descending Minneapolis Center
Fri 07:23:43 PM 45.6689 -98.7056 44° Northeast 457 526 33,900 -2,661 Descending Minneapolis Center
Fri 07:24:45 PM 45.7572 -98.5744 46° Northeast 457 526 30,600 -2,903 Descending Minneapolis Center
Fri 07:25:47 PM 45.8497 -98.4369 46° Northeast 466 536 27,900 -2,468 Descending Minneapolis Center
Fri 07:26:49 PM 45.9472 -98.2972 45° Northeast 482 555 25,500 -2,516 Descending Minneapolis Center
Fri 07:27:51 PM 46.0567 -98.1367 45° Northeast 478 550 22,700 -2,468 Descending Minneapolis Center
Fri 07:28:53 PM 46.1400 -98.0022 48° Northeast 462 532 20,400 -2,323 Descending Minneapolis Center
Fri 07:29:55 PM 46.2211 -97.8814 46° Northeast 438 504 17,900 -2,390 Descending Minneapolis Center
Fri 07:30:56 PM 46.2958 -97.7472 51° Northeast 409 471 15,500 -2,098 Descending Minneapolis Center
Fri 07:31:58 PM 46.3661 -97.6242 50° Northeast 384 442 13,600 -1,839 Descending Minneapolis Center
Fri 07:33:00 PM 46.4275 -97.5156 51° Northeast 362 417 11,700 -1,500 Descending Minneapolis Center
Fri 07:34:02 PM 46.4883 -97.4083 50° Northeast 334 384 10,500 -1,016 Descending Minneapolis Center
Fri 07:35:04 PM 46.5400 -97.3153 51° Northeast 284 327 9,600 -968 Descending Minneapolis Center
Fri 07:36:06 PM 46.5883 -97.2311 50° Northeast 263 303 8,500 -1,122 Descending Minneapolis Center
Fri 07:37:07 PM 46.6361 -97.1453 51° Northeast 261 300 7,300 -1,122 Descending Minneapolis Center
Fri 07:38:09 PM 46.6781 -97.0706 51° Northeast 249 287 6,200 -1,016 Descending Minneapolis Center
Fri 07:39:11 PM 46.7186 -96.9967 51° Northeast 228 262 5,200 -1,016 Descending Minneapolis Center
Fri 07:40:13 PM 46.7558 -96.9292 51° Northeast 210 242 4,100 -919 Descending Minneapolis Center
Fri 07:41:15 PM 46.7911 -96.8661 51° Northeast 195 224 3,300 -726 Descending Minneapolis Center
Fri 07:42:17 PM 46.8189 -96.8197 49° Northeast 145 167 2,600 -634 Descending Minneapolis Center
Fri 07:43:18 PM 46.8547 -96.8172 North 124 143 2,000 -634 Descending Minneapolis Center
Fri 07:44:20 PM 46.8867 -96.8164 North 120 138 1,300 -677 Descending Minneapolis Center
Fri 07:46:00 PM 46.9167 -96.8000 North  Level FlightAware Approximate

Login

Don't have an account? Register now (free) for customized features, flight alerts, and more!